Usk, Washington
Current Conditions -  °F | °C
As of 6:53 PM on Sunday 21 Dec 2014 (Local Time) from KDEW Reporting Station
Clear Clear  
Wind Chill: 34°   Ceiling: Unl
Heat Index: 39°   Visibility: 10mi
Dew Point: 34°   Wind: 7mph
Humidity: 82%   Direction: 150°SSE
Pressure: 29.89"   Gusts: NA
Location:  48.31°N, 117.28°W
Report Text: KDEW 220253Z AUTO 15006KT 10SM CLR 04/01 A2989 RMK AO2 SLP134 T00390011 51010
Loading
Personal Weather Stations






























Interactive Weather Map New forecast layout! Learn more

10-Day Weather Forecast

Advertisements
Track Severe Weather on mobile